Maple Lake, Minnesota
Current Conditions -  °F | °C
As of 4:15 PM on Sunday 23 Nov 2014 (Local Time) from KMGG Reporting Station
Overcast Overcast  
Wind Chill: 33°   Ceiling: 4000
Heat Index: 37°   Visibility: 7mi
Dew Point: 37°   Wind: 6mph
Humidity: 99%   Direction: 280°W
Pressure: 29.41"   Gusts: NA
Location:  45.23°N, 94°W
Report Text: KMGG 232215Z AUTO 28005KT 7SM OVC040 03/03 A2941 RMK AO2 T00300028
Loading
Personal Weather Stations






























Interactive Weather Map New forecast layout! Learn more

10-Day Weather Forecast

Advertisements
Track Severe Weather on mobile